createdAt,value
2019-04-22T00:03:39.004Z,16.09
2019-04-22T00:09:07.056Z,16.32
2019-04-22T00:14:05.591Z,16.50
2019-04-22T00:19:29.341Z,15.67
2019-04-22T00:24:34.777Z,15.12
2019-04-22T00:29:42.624Z,14.36
2019-04-22T00:34:40.864Z,14.09
2019-04-22T00:39:46.321Z,15.45
2019-04-22T00:45:06.102Z,13.73
2019-04-22T00:55:18.217Z,14.35
2019-04-22T01:00:28.939Z,15.12
2019-04-22T01:10:49.855Z,16.13
2019-04-22T01:15:58.649Z,16.11
2019-04-22T01:21:02.154Z,14.93
2019-04-22T01:26:02.510Z,15.92
2019-04-22T01:31:02.877Z,18.63
2019-04-22T01:41:47.119Z,18.19
2019-04-22T01:46:39.627Z,18.57
2019-04-22T01:52:02.947Z,18.15
2019-04-22T01:56:54.051Z,18.04
2019-04-22T02:02:10.291Z,18.94
2019-04-22T02:07:14.055Z,17.76
2019-04-22T02:12:29.858Z,18.16
2019-04-22T02:17:36.907Z,19.42
2019-04-22T02:23:00.886Z,18.47
2019-04-22T02:28:03.306Z,19.47
2019-04-22T02:33:30.610Z,19.86
2019-04-22T02:38:30.719Z,20.00
2019-04-22T02:43:34.024Z,20.61
2019-04-22T02:48:45.565Z,21.69
2019-04-22T02:59:08.076Z,21.51
2019-04-22T03:04:06.971Z,20.30
2019-04-22T03:14:13.442Z,21.59
2019-04-22T03:24:36.303Z,23.47
2019-04-22T03:29:31.009Z,23.87
2019-04-22T03:45:12.756Z,25.26
2019-04-22T03:55:11.027Z,25.62
2019-04-22T04:00:43.171Z,25.87
2019-04-22T04:10:53.429Z,26.45
2019-04-22T04:15:53.473Z,24.85
2019-04-22T04:21:09.095Z,27.57
2019-04-22T04:25:52.067Z,27.11
2019-04-22T04:36:17.113Z,25.97
2019-04-22T04:41:42.099Z,26.26
2019-04-22T04:46:49.759Z,27.29
2019-04-22T04:56:56.483Z,27.70
2019-04-22T05:02:02.385Z,27.18
2019-04-22T05:12:29.291Z,29.29
2019-04-22T05:17:35.213Z,29.48
2019-04-22T05:22:39.794Z,28.48
2019-04-22T05:27:45.349Z,28.91
2019-04-22T05:32:58.659Z,29.63
2019-04-22T05:43:00.144Z,29.69
2019-04-22T05:48:18.743Z,29.27
2019-04-22T05:53:25.456Z,30.21
2019-04-22T05:58:39.484Z,29.27
2019-04-22T06:03:37.664Z,29.21
2019-04-22T06:09:02.904Z,29.30
2019-04-22T06:13:51.979Z,29.64
2019-04-22T06:29:25.308Z,27.30
2019-04-22T06:34:38.549Z,28.34
2019-04-22T06:44:52.659Z,30.02
2019-04-22T06:55:00.459Z,29.27
2019-04-22T07:00:23.135Z,28.65
2019-04-22T07:05:29.715Z,27.24
2019-04-22T07:20:50.801Z,23.46
2019-04-22T07:36:38.188Z,27.84
2019-04-22T07:41:28.831Z,27.27
2019-04-22T07:46:33.587Z,25.46
2019-04-22T07:56:48.300Z,27.57
2019-04-22T08:01:56.242Z,27.47
2019-04-22T08:12:12.856Z,27.63
2019-04-22T08:17:50.829Z,27.80
2019-04-22T08:22:27.410Z,26.05
2019-04-22T08:32:45.704Z,26.89
2019-04-22T08:43:12.658Z,26.67
2019-04-22T08:48:16.345Z,25.26
2019-04-22T08:53:26.749Z,25.70
2019-04-22T09:03:30.345Z,25.25
2019-04-22T09:08:45.647Z,24.07
2019-04-22T09:13:55.817Z,24.46
2019-04-22T09:24:03.925Z,24.06
2019-04-22T09:29:28.831Z,23.22
2019-04-22T09:34:22.518Z,22.24
2019-04-22T09:39:41.538Z,21.44
2019-04-22T09:44:47.872Z,21.10
2019-04-22T09:55:07.828Z,18.66
2019-04-22T10:00:02.800Z,19.04
2019-04-22T10:05:21.077Z,19.23
2019-04-22T10:10:28.128Z,18.53
2019-04-22T10:15:28.084Z,18.79
2019-04-22T10:20:47.262Z,17.84
2019-04-22T10:25:58.389Z,17.27
2019-04-22T10:31:03.308Z,18.26
2019-04-22T10:35:45.683Z,19.04
2019-04-22T10:40:54.576Z,17.66
2019-04-22T10:46:04.155Z,16.26
2019-04-22T10:51:12.726Z,16.37
2019-04-22T10:56:20.954Z,15.05
2019-04-22T11:01:29.590Z,15.34
2019-04-22T11:06:41.722Z,14.73
2019-04-22T11:11:54.510Z,14.09
2019-04-22T11:16:55.312Z,12.95
2019-04-22T11:22:09.651Z,11.88
2019-04-22T11:27:10.997Z,10.41
2019-04-22T11:32:20.258Z,9.98
2019-04-22T11:37:28.433Z,9.01
2019-04-22T11:42:38.506Z,8.46
2019-04-22T11:47:45.619Z,8.04
2019-04-22T11:52:55.221Z,7.69
2019-04-22T11:58:03.176Z,6.61
2019-04-22T12:03:12.508Z,6.23
2019-04-22T12:08:20.728Z,6.33
2019-04-22T12:13:28.271Z,6.30
2019-04-22T12:18:37.337Z,6.15
2019-04-22T12:23:45.222Z,6.38
2019-04-22T12:28:53.310Z,6.59
2019-04-22T12:34:03.546Z,6.62
2019-04-22T12:39:11.534Z,6.07
2019-04-22T12:44:20.123Z,6.23
2019-04-22T12:49:28.022Z,6.27
2019-04-22T12:54:37.200Z,6.11
2019-04-22T12:59:44.019Z,6.26
2019-04-22T13:04:54.319Z,5.98
2019-04-22T13:10:01.481Z,5.93
2019-04-22T13:15:11.704Z,6.55
2019-04-22T13:20:20.175Z,6.29
2019-04-22T13:25:28.845Z,6.05
2019-04-22T13:30:36.890Z,5.95
2019-04-22T13:35:43.948Z,6.41
2019-04-22T13:41:05.561Z,6.07
2019-04-22T13:46:01.823Z,5.96
2019-04-22T13:56:40.211Z,6.08
2019-04-22T14:01:26.431Z,5.80
2019-04-22T14:06:36.491Z,5.80
2019-04-22T14:11:50.620Z,6.03
2019-04-22T14:16:53.256Z,5.53
2019-04-22T14:22:01.858Z,5.63
2019-04-22T14:27:17.490Z,5.64
2019-04-22T14:32:21.174Z,5.35
2019-04-22T14:37:25.854Z,5.79
2019-04-22T14:42:56.842Z,5.42
2019-04-22T14:48:09.377Z,5.27
2019-04-22T14:53:13.372Z,5.74
2019-04-22T14:58:01.189Z,5.50
2019-04-22T15:03:08.417Z,4.91
2019-04-22T15:08:17.291Z,4.88
2019-04-22T15:13:25.398Z,4.82
2019-04-22T15:18:34.032Z,5.24
2019-04-22T15:23:42.901Z,5.24
2019-04-22T15:28:51.776Z,5.12
2019-04-22T15:34:00.658Z,4.86
2019-04-22T15:39:09.577Z,5.21
2019-04-22T15:44:19.745Z,4.78
2019-04-22T15:49:27.836Z,4.71
2019-04-22T15:54:35.219Z,4.75
2019-04-22T15:59:59.306Z,5.03
2019-04-22T16:04:52.804Z,5.02
2019-04-22T16:10:01.767Z,5.70
2019-04-22T16:15:11.206Z,5.28
2019-04-22T16:20:19.263Z,5.04
2019-04-22T16:25:27.060Z,4.33
2019-04-22T16:30:35.163Z,4.62
2019-04-22T16:35:44.906Z,4.50
2019-04-22T16:40:52.702Z,4.49
2019-04-22T16:46:01.491Z,4.71
2019-04-22T16:51:09.876Z,4.00
2019-04-22T16:56:17.615Z,4.09
2019-04-22T17:01:26.511Z,3.82
2019-04-22T17:06:35.480Z,3.51
2019-04-22T17:11:45.608Z,3.53
2019-04-22T17:16:52.820Z,3.27
2019-04-22T17:22:01.711Z,3.29
2019-04-22T17:27:10.604Z,3.29
2019-04-22T17:32:21.179Z,3.09
2019-04-22T17:37:29.803Z,3.18
2019-04-22T17:42:49.451Z,2.89
2019-04-22T17:48:03.833Z,2.72
2019-04-22T17:53:21.261Z,2.88
2019-04-22T17:58:31.087Z,2.66
2019-04-22T18:03:23.940Z,2.69
2019-04-22T18:13:51.631Z,2.59
2019-04-22T18:18:49.724Z,2.67
2019-04-22T18:23:54.017Z,2.65
2019-04-22T18:29:11.482Z,2.44
2019-04-22T18:34:10.046Z,2.81
2019-04-22T18:39:32.471Z,2.55
2019-04-22T18:49:42.875Z,2.77
2019-04-22T18:54:47.971Z,2.62
2019-04-22T18:59:45.310Z,2.79
2019-04-22T19:04:59.937Z,3.02
2019-04-22T19:10:32.940Z,2.70
2019-04-22T19:15:33.113Z,3.18
2019-04-22T19:20:37.969Z,3.05
2019-04-22T19:25:43.808Z,3.22
2019-04-22T19:30:59.433Z,3.27
2019-04-22T19:36:05.081Z,3.71
2019-04-22T19:41:13.470Z,3.76
2019-04-22T19:46:13.017Z,3.70
2019-04-22T19:51:23.535Z,3.64
2019-04-22T19:56:29.579Z,3.83
2019-04-22T20:01:34.610Z,4.27
2019-04-22T20:06:47.885Z,3.95
2019-04-22T20:16:58.551Z,4.34
2019-04-22T20:22:12.792Z,4.50
2019-04-22T20:27:22.464Z,4.36
2019-04-22T20:32:36.336Z,4.35
2019-04-22T20:37:47.115Z,4.19
2019-04-22T20:42:55.579Z,4.13
2019-04-22T20:47:51.252Z,4.34
2019-04-22T20:58:13.577Z,3.96
2019-04-22T21:03:13.304Z,3.93
2019-04-22T21:13:27.858Z,3.78
2019-04-22T21:18:44.610Z,3.29
2019-04-22T21:23:47.687Z,3.74
2019-04-22T21:29:04.337Z,3.54
2019-04-22T21:34:11.191Z,3.54
2019-04-22T21:39:17.720Z,3.26
2019-04-22T21:44:32.117Z,3.15
2019-04-22T21:49:45.872Z,3.31
2019-04-22T21:54:51.893Z,3.07
2019-04-22T21:59:56.711Z,3.07
2019-04-22T22:04:55.169Z,3.18
2019-04-22T22:10:04.389Z,2.76
2019-04-22T22:15:22.535Z,2.86
2019-04-22T22:20:22.697Z,3.22
2019-04-22T22:25:34.881Z,2.81
2019-04-22T22:30:51.292Z,2.64
2019-04-22T22:35:51.933Z,2.45
2019-04-22T22:40:43.925Z,2.73
2019-04-22T22:46:03.304Z,2.57
2019-04-22T22:51:32.538Z,2.73
2019-04-22T22:56:40.970Z,2.49
2019-04-22T23:01:41.027Z,2.53
2019-04-22T23:12:05.992Z,2.76
2019-04-22T23:16:52.889Z,2.76
2019-04-22T23:21:55.730Z,2.76
2019-04-22T23:27:15.699Z,2.56
2019-04-22T23:32:21.141Z,2.53
2019-04-22T23:37:25.179Z,2.37
2019-04-22T23:42:46.592Z,2.35
2019-04-22T23:47:42.394Z,2.17
2019-04-22T23:53:00.582Z,2.16
2019-04-22T23:58:12.900Z,2.25
